YAYE Airport Information

Runway Information
Runway 13 Length 8527 ft width 98 ft
Elevation 1612 ft Threshold 0 ft Heading 130
Runway 31 Length 8527 ft Width 98 ft
Elevation 1626 ft Threshold 0 ft Heading 310
Airport Frequencies
Type ATIS Name ATIS Frequency 126.55 MHZ
Type CTAF Name CTAF Frequency 126.9 MHZ
Type FSS Name MELBOURNE Frequency 121.85 MHZ
Airport Navaids
Type NDB-DME Name Ayers Rock Frequency 233 KHZ
Airport Weather Information & NOTAM
ADDS - METARS form results

(1111 UTC 08 December 2019)
Data provider http://aviationweather.gov/metar/data/
 
METAR text: YAYE 081100Z AUTO 36006KT 9999 // NCD 37/M09 Q1009
Conditions at: YAYE (AYERS ROCK , AU) observed 1100 UTC 08 December 2019
Temperature: 37.0°C (99°F)
Dewpoint: -9.0°C (16°F) [RH =  5%]
Pressure (altimeter): 29.79 inches Hg (1009.0 mb)
Winds: from the N (360 degrees) at 7 MPH (6 knots; 3.1 m/s)
Visibility: 6 or more miles (10+ km)
Ceiling: at least 12,000 feet AGL
Clouds: sky clear below 12,000 feet AGL
Weather: no significant weather observed at this time